createdAt,value
2022-12-26T00:00:08.832Z,100
2022-12-26T00:01:08.699Z,100
2022-12-26T00:03:08.806Z,100
2022-12-26T00:06:08.688Z,100
2022-12-26T00:10:08.706Z,100
2022-12-26T00:11:08.768Z,100
2022-12-26T00:13:38.717Z,100
2022-12-26T00:14:08.688Z,100
2022-12-26T00:15:08.683Z,100
2022-12-26T00:18:08.685Z,100
2022-12-26T00:21:08.712Z,100
2022-12-26T00:22:08.702Z,100
2022-12-26T00:23:08.712Z,100
2022-12-26T00:26:08.694Z,100
2022-12-26T00:27:08.685Z,100
2022-12-26T00:28:08.686Z,100
2022-12-26T00:33:08.719Z,100
2022-12-26T00:34:08.691Z,100
2022-12-26T00:37:08.688Z,100
2022-12-26T00:38:08.679Z,100
2022-12-26T00:45:08.692Z,100
2022-12-26T00:47:08.718Z,100
2022-12-26T00:50:13.221Z,100
2022-12-26T00:52:08.767Z,100
2022-12-26T00:54:08.713Z,100
2022-12-26T00:55:08.692Z,100
2022-12-26T00:56:08.688Z,100
2022-12-26T00:57:08.689Z,100
2022-12-26T00:59:08.751Z,100
2022-12-26T01:01:08.830Z,100
2022-12-26T01:02:08.918Z,100
2022-12-26T01:03:08.767Z,100
2022-12-26T01:04:08.731Z,100
2022-12-26T01:05:09.098Z,100
2022-12-26T01:06:08.755Z,100
2022-12-26T01:08:23.380Z,100
2022-12-26T01:09:08.691Z,100
2022-12-26T01:10:08.700Z,100
2022-12-26T01:11:08.686Z,100
2022-12-26T01:13:08.696Z,100
2022-12-26T01:18:08.741Z,100
2022-12-26T01:19:08.683Z,100
2022-12-26T01:24:08.693Z,100
2022-12-26T01:25:08.728Z,100
2022-12-26T01:28:08.694Z,100
2022-12-26T01:30:08.690Z,100
2022-12-26T01:31:08.736Z,100
2022-12-26T01:32:08.796Z,100
2022-12-26T01:33:08.691Z,100
2022-12-26T01:35:08.686Z,100
2022-12-26T01:36:08.690Z,100
2022-12-26T01:38:08.689Z,100
2022-12-26T01:39:08.717Z,100
2022-12-26T01:40:08.692Z,100
2022-12-26T01:42:08.696Z,100
2022-12-26T01:43:08.690Z,100
2022-12-26T01:44:08.687Z,100
2022-12-26T01:45:08.687Z,100
2022-12-26T01:46:08.806Z,100
2022-12-26T01:47:08.691Z,100
2022-12-26T01:49:08.687Z,100
2022-12-26T01:50:08.840Z,100
2022-12-26T01:51:08.693Z,100
2022-12-26T01:52:08.692Z,100
2022-12-26T01:53:08.726Z,100
2022-12-26T01:54:36.904Z,100
2022-12-26T01:55:08.688Z,100
2022-12-26T01:56:08.724Z,100
2022-12-26T01:57:08.698Z,100
2022-12-26T01:58:08.685Z,100
2022-12-26T01:59:08.702Z,100
2022-12-26T02:00:08.703Z,100
2022-12-26T02:01:08.895Z,100
2022-12-26T02:02:08.852Z,100
2022-12-26T02:03:08.712Z,100
2022-12-26T02:04:08.694Z,100
2022-12-26T02:05:08.730Z,100
2022-12-26T02:07:08.710Z,100
2022-12-26T02:08:08.691Z,100
2022-12-26T02:09:08.700Z,100
2022-12-26T02:10:08.708Z,100
2022-12-26T02:11:08.695Z,100
2022-12-26T02:12:34.361Z,100
2022-12-26T02:13:08.700Z,100
2022-12-26T02:14:08.714Z,100
2022-12-26T02:15:08.709Z,100
2022-12-26T02:16:08.812Z,100
2022-12-26T02:17:08.699Z,100
2022-12-26T02:18:08.694Z,100
2022-12-26T02:19:08.709Z,100
2022-12-26T02:20:08.716Z,100
2022-12-26T02:21:08.692Z,100
2022-12-26T02:22:08.689Z,100
2022-12-26T02:23:08.724Z,100
2022-12-26T02:24:08.696Z,100
2022-12-26T02:25:08.703Z,100
2022-12-26T02:26:08.735Z,100
2022-12-26T02:27:08.727Z,100
2022-12-26T02:28:08.690Z,100
2022-12-26T02:29:08.701Z,100
2022-12-26T02:30:08.713Z,100
2022-12-26T02:31:08.693Z,100
2022-12-26T02:32:08.783Z,100
2022-12-26T02:33:08.707Z,100
2022-12-26T02:34:08.719Z,100
2022-12-26T02:35:08.697Z,100
2022-12-26T02:36:08.701Z,100
2022-12-26T02:37:08.707Z,100
2022-12-26T02:38:08.733Z,100
2022-12-26T02:39:45.387Z,100
2022-12-26T02:40:08.712Z,100
2022-12-26T02:41:08.698Z,100
2022-12-26T02:42:08.695Z,100
2022-12-26T02:43:08.713Z,100
2022-12-26T02:44:08.721Z,100
2022-12-26T02:45:08.706Z,100
2022-12-26T02:46:08.758Z,100
2022-12-26T02:47:08.704Z,100
2022-12-26T02:48:08.711Z,100
2022-12-26T02:49:08.699Z,100
2022-12-26T02:50:08.713Z,100
2022-12-26T02:51:08.686Z,100
2022-12-26T02:52:08.687Z,100
2022-12-26T02:53:08.698Z,100
2022-12-26T02:54:08.698Z,100
2022-12-26T02:55:08.697Z,100
2022-12-26T02:56:08.722Z,100
2022-12-26T02:57:08.704Z,100
2022-12-26T02:58:08.735Z,100
2022-12-26T02:59:08.697Z,100
2022-12-26T03:00:08.691Z,100
2022-12-26T03:01:08.795Z,100
2022-12-26T03:02:08.811Z,100
2022-12-26T03:03:08.846Z,100
2022-12-26T03:04:08.698Z,100
2022-12-26T03:05:08.703Z,100
2022-12-26T03:06:08.713Z,100
2022-12-26T03:07:08.686Z,100
2022-12-26T03:08:08.697Z,100
2022-12-26T03:09:08.707Z,100
2022-12-26T03:10:08.716Z,100
2022-12-26T03:11:08.693Z,100
2022-12-26T03:12:08.701Z,100
2022-12-26T03:13:08.696Z,100
2022-12-26T03:14:08.698Z,100
2022-12-26T03:15:08.705Z,100
2022-12-26T03:16:08.717Z,100
2022-12-26T03:17:08.781Z,100
2022-12-26T03:18:08.721Z,100
2022-12-26T03:19:08.711Z,100
2022-12-26T03:20:08.728Z,100
2022-12-26T03:21:08.722Z,100
2022-12-26T03:22:08.696Z,100
2022-12-26T03:23:08.693Z,100
2022-12-26T03:24:08.735Z,100
2022-12-26T03:25:08.698Z,100
2022-12-26T03:26:08.730Z,100
2022-12-26T03:27:08.697Z,100
2022-12-26T03:28:08.708Z,100
2022-12-26T03:29:08.729Z,100
2022-12-26T03:30:08.715Z,100
2022-12-26T03:31:08.842Z,100
2022-12-26T03:32:08.706Z,100
2022-12-26T03:33:08.713Z,100
2022-12-26T03:34:08.700Z,100
2022-12-26T03:35:08.711Z,100
2022-12-26T03:36:08.699Z,100
2022-12-26T03:37:08.700Z,100
2022-12-26T03:38:08.719Z,100
2022-12-26T03:39:08.704Z,100
2022-12-26T03:40:08.704Z,100
2022-12-26T03:41:08.732Z,100
2022-12-26T03:42:08.711Z,100
2022-12-26T03:43:08.696Z,100
2022-12-26T03:44:08.723Z,100
2022-12-26T03:45:08.769Z,100
2022-12-26T03:46:08.761Z,100
2022-12-26T03:47:08.703Z,100
2022-12-26T03:48:08.710Z,100
2022-12-26T03:49:08.715Z,100
2022-12-26T03:50:08.710Z,100
2022-12-26T03:51:08.702Z,100
2022-12-26T03:52:08.732Z,100
2022-12-26T03:53:08.704Z,100
2022-12-26T03:54:08.702Z,100
2022-12-26T03:55:08.703Z,100
2022-12-26T03:56:08.712Z,100
2022-12-26T03:57:08.708Z,100
2022-12-26T03:58:08.705Z,100
2022-12-26T03:59:08.828Z,100
2022-12-26T04:00:08.736Z,100
2022-12-26T04:01:08.905Z,100
2022-12-26T04:02:08.830Z,100
2022-12-26T04:03:08.786Z,100
2022-12-26T04:04:08.758Z,100
2022-12-26T04:05:08.710Z,100
2022-12-26T04:06:08.727Z,100
2022-12-26T04:07:08.707Z,100
2022-12-26T04:08:11.153Z,100
2022-12-26T04:09:08.700Z,100
2022-12-26T04:10:08.715Z,100
2022-12-26T04:11:08.711Z,100
2022-12-26T04:12:08.708Z,100
2022-12-26T04:13:08.776Z,100
2022-12-26T04:14:08.711Z,100
2022-12-26T04:15:08.706Z,100
2022-12-26T04:16:08.828Z,100
2022-12-26T04:17:08.720Z,100
2022-12-26T04:18:08.706Z,100
2022-12-26T04:19:08.715Z,100
2022-12-26T04:20:08.722Z,100
2022-12-26T04:21:08.714Z,100
2022-12-26T04:22:08.705Z,100
2022-12-26T04:23:08.701Z,100
2022-12-26T04:24:08.708Z,100
2022-12-26T04:25:08.711Z,100
2022-12-26T04:26:08.713Z,100
2022-12-26T04:27:08.735Z,100
2022-12-26T04:28:08.719Z,100
2022-12-26T04:29:08.705Z,100
2022-12-26T04:30:08.713Z,100
2022-12-26T04:31:08.846Z,100
2022-12-26T04:32:08.709Z,100
2022-12-26T04:33:08.706Z,100
2022-12-26T04:34:08.735Z,100
2022-12-26T04:35:08.721Z,100
2022-12-26T04:36:08.730Z,100
2022-12-26T04:37:08.705Z,100
2022-12-26T04:38:08.703Z,100
2022-12-26T04:39:08.706Z,100
2022-12-26T04:40:08.705Z,100
2022-12-26T04:41:08.700Z,100
2022-12-26T04:42:08.710Z,100
2022-12-26T04:43:47.409Z,100
2022-12-26T04:44:08.709Z,100
2022-12-26T04:45:08.719Z,100
2022-12-26T04:46:08.727Z,100
2022-12-26T04:47:08.711Z,100
2022-12-26T04:48:08.709Z,100
2022-12-26T04:49:08.716Z,100
2022-12-26T04:50:08.714Z,100
2022-12-26T04:51:08.714Z,100
2022-12-26T04:52:08.719Z,100
2022-12-26T04:53:08.716Z,100
2022-12-26T04:54:08.706Z,100
2022-12-26T04:55:08.703Z,100
2022-12-26T04:56:08.706Z,100
2022-12-26T04:57:08.702Z,100
2022-12-26T04:58:08.717Z,100
2022-12-26T04:59:08.711Z,100
2022-12-26T05:00:08.976Z,100
2022-12-26T05:01:08.844Z,100
2022-12-26T05:02:08.902Z,100
2022-12-26T05:03:10.226Z,100
2022-12-26T05:04:08.707Z,100
2022-12-26T05:05:08.709Z,100
2022-12-26T05:06:08.745Z,100
2022-12-26T05:07:08.731Z,100
2022-12-26T05:08:08.723Z,100
2022-12-26T05:09:08.713Z,100
2022-12-26T05:10:08.764Z,100
2022-12-26T05:11:08.730Z,100
2022-12-26T05:12:08.712Z,100
2022-12-26T05:13:08.728Z,100
2022-12-26T05:14:08.714Z,100
2022-12-26T05:15:08.743Z,100
2022-12-26T05:16:08.752Z,100
2022-12-26T05:17:08.708Z,100
2022-12-26T05:18:08.704Z,100
2022-12-26T05:19:08.703Z,100
2022-12-26T05:20:08.702Z,100
2022-12-26T05:21:08.772Z,100
2022-12-26T05:22:08.726Z,100
2022-12-26T05:23:08.714Z,100
2022-12-26T05:24:08.713Z,100
2022-12-26T05:25:08.711Z,100
2022-12-26T05:26:08.715Z,100
2022-12-26T05:27:08.720Z,100
2022-12-26T05:28:08.733Z,100
2022-12-26T05:29:08.704Z,100
2022-12-26T05:30:08.819Z,100
2022-12-26T05:31:08.776Z,100
2022-12-26T05:32:08.703Z,100
2022-12-26T05:33:08.759Z,100
2022-12-26T05:34:08.718Z,100
2022-12-26T05:35:08.720Z,100
2022-12-26T05:36:08.720Z,100
2022-12-26T05:37:08.726Z,100
2022-12-26T05:38:08.702Z,100
2022-12-26T05:39:08.739Z,100
2022-12-26T05:40:08.712Z,100
2022-12-26T05:41:08.713Z,100
2022-12-26T05:42:08.726Z,100
2022-12-26T05:43:08.709Z,100
2022-12-26T05:44:08.708Z,100
2022-12-26T05:45:08.720Z,100
2022-12-26T05:46:08.758Z,100
2022-12-26T05:47:08.722Z,100
2022-12-26T05:48:08.719Z,100
2022-12-26T05:49:08.720Z,100
2022-12-26T05:50:08.709Z,100
2022-12-26T05:51:08.710Z,100
2022-12-26T05:52:08.706Z,100
2022-12-26T05:53:08.716Z,100
2022-12-26T05:54:08.741Z,100
2022-12-26T05:55:08.730Z,100
2022-12-26T05:56:08.787Z,100
2022-12-26T05:57:08.710Z,100
2022-12-26T05:58:08.712Z,100
2022-12-26T05:59:08.716Z,100
2022-12-26T06:00:08.735Z,100
2022-12-26T06:01:08.764Z,100
2022-12-26T06:02:08.831Z,100
2022-12-26T06:03:08.887Z,100
2022-12-26T06:04:08.775Z,100
2022-12-26T06:05:08.716Z,100
2022-12-26T06:06:08.715Z,100
2022-12-26T06:07:08.707Z,100
2022-12-26T06:08:08.714Z,100
2022-12-26T06:09:08.723Z,100
2022-12-26T06:10:08.718Z,100
2022-12-26T06:11:08.709Z,100
2022-12-26T06:12:08.711Z,100
2022-12-26T06:13:08.718Z,100
2022-12-26T06:14:08.706Z,100
2022-12-26T06:15:08.721Z,100
2022-12-26T06:16:08.745Z,100
2022-12-26T06:17:08.747Z,100
2022-12-26T06:18:08.716Z,100
2022-12-26T06:19:08.719Z,100
2022-12-26T06:20:08.712Z,100
2022-12-26T06:21:08.718Z,100
2022-12-26T06:22:08.710Z,100
2022-12-26T06:23:08.716Z,100
2022-12-26T06:24:08.752Z,100
2022-12-26T06:25:08.718Z,100
2022-12-26T06:26:08.711Z,100
2022-12-26T06:27:08.710Z,100
2022-12-26T06:28:08.728Z,100
2022-12-26T06:29:08.721Z,100
2022-12-26T06:30:08.715Z,100
2022-12-26T06:31:08.794Z,100
2022-12-26T06:32:08.716Z,100
2022-12-26T06:33:08.717Z,100
2022-12-26T06:34:08.719Z,100
2022-12-26T06:35:08.739Z,100
2022-12-26T06:36:08.727Z,100
2022-12-26T06:37:08.715Z,100
2022-12-26T06:38:08.734Z,100
2022-12-26T06:39:08.712Z,100
2022-12-26T06:40:08.709Z,100
2022-12-26T06:41:08.725Z,100
2022-12-26T06:42:08.718Z,100
2022-12-26T06:43:08.747Z,100
2022-12-26T06:44:12.966Z,100
2022-12-26T06:45:08.761Z,100
2022-12-26T06:46:08.719Z,100
2022-12-26T06:47:08.755Z,100
2022-12-26T06:48:08.719Z,100
2022-12-26T06:49:08.713Z,100
2022-12-26T06:50:08.719Z,100
2022-12-26T06:51:08.726Z,100
2022-12-26T06:52:08.724Z,100
2022-12-26T06:53:08.727Z,100
2022-12-26T06:54:08.714Z,100
2022-12-26T06:55:08.765Z,100
2022-12-26T06:56:08.735Z,100
2022-12-26T06:57:08.744Z,100
2022-12-26T06:58:08.729Z,100
2022-12-26T06:59:08.779Z,100
2022-12-26T07:00:08.723Z,100
2022-12-26T07:01:08.784Z,100
2022-12-26T07:02:08.821Z,100
2022-12-26T07:03:08.882Z,100
2022-12-26T07:04:08.721Z,100
2022-12-26T07:05:08.717Z,100
2022-12-26T07:06:08.743Z,100
2022-12-26T07:07:08.730Z,100
2022-12-26T07:08:08.720Z,100
2022-12-26T07:09:08.724Z,100
2022-12-26T07:10:08.738Z,100
2022-12-26T07:11:08.723Z,100
2022-12-26T07:12:08.716Z,100
2022-12-26T07:13:08.715Z,100
2022-12-26T07:14:08.725Z,100
2022-12-26T07:15:08.720Z,100
2022-12-26T07:16:08.744Z,100
2022-12-26T07:17:08.725Z,100
2022-12-26T07:18:08.738Z,100
2022-12-26T07:19:08.717Z,100
2022-12-26T07:20:08.740Z,100
2022-12-26T07:21:08.719Z,100
2022-12-26T07:22:08.723Z,100
2022-12-26T07:23:08.727Z,100
2022-12-26T07:24:08.721Z,100
2022-12-26T07:25:08.721Z,100
2022-12-26T07:26:08.726Z,100
2022-12-26T07:28:08.722Z,100
2022-12-26T07:29:08.723Z,100
2022-12-26T07:30:08.728Z,100
2022-12-26T07:31:08.723Z,100
2022-12-26T07:32:08.779Z,100
2022-12-26T07:33:08.728Z,100
2022-12-26T07:34:08.728Z,100
2022-12-26T07:35:08.724Z,100
2022-12-26T07:36:08.723Z,100
2022-12-26T07:37:08.754Z,100
2022-12-26T07:38:08.719Z,100
2022-12-26T07:39:08.722Z,100
2022-12-26T07:40:08.717Z,100
2022-12-26T07:41:08.733Z,100
2022-12-26T07:42:08.731Z,100
2022-12-26T07:43:08.729Z,100
2022-12-26T07:44:08.741Z,100
2022-12-26T07:45:08.723Z,100
2022-12-26T07:46:08.769Z,100
2022-12-26T07:47:08.726Z,100
2022-12-26T07:48:08.729Z,100
2022-12-26T07:49:08.737Z,100
2022-12-26T07:50:08.726Z,100
2022-12-26T07:51:08.726Z,100
2022-12-26T07:52:08.729Z,100
2022-12-26T07:53:08.743Z,100
2022-12-26T07:54:11.394Z,100
2022-12-26T07:55:08.712Z,100
2022-12-26T07:56:08.724Z,100
2022-12-26T07:57:46.344Z,100
2022-12-26T07:58:08.733Z,100
2022-12-26T07:59:08.725Z,100
2022-12-26T08:00:08.732Z,100
2022-12-26T08:01:08.808Z,100
2022-12-26T08:02:08.929Z,100
2022-12-26T08:03:08.874Z,100
2022-12-26T08:04:08.717Z,100
2022-12-26T08:05:08.714Z,100
2022-12-26T08:06:08.724Z,100
2022-12-26T08:07:08.804Z,100
2022-12-26T08:08:08.742Z,100
2022-12-26T08:09:08.765Z,100
2022-12-26T08:10:08.722Z,100
2022-12-26T08:11:08.744Z,100
2022-12-26T08:12:08.722Z,100
2022-12-26T08:13:08.734Z,100
2022-12-26T08:14:08.791Z,100
2022-12-26T08:15:08.722Z,100
2022-12-26T08:16:08.805Z,100
2022-12-26T08:17:08.802Z,100
2022-12-26T08:18:08.739Z,100
2022-12-26T08:19:08.732Z,100
2022-12-26T08:20:08.743Z,100
2022-12-26T08:21:08.742Z,100
2022-12-26T08:22:08.742Z,100
2022-12-26T08:23:08.736Z,100
2022-12-26T08:24:08.720Z,100
2022-12-26T08:25:08.731Z,100
2022-12-26T08:26:08.740Z,100
2022-12-26T08:27:08.714Z,100
2022-12-26T08:28:08.726Z,100
2022-12-26T08:29:08.723Z,100
2022-12-26T08:30:08.732Z,100
2022-12-26T08:31:08.712Z,100
2022-12-26T08:32:08.743Z,100
2022-12-26T08:33:08.729Z,100
2022-12-26T08:35:08.723Z,100
2022-12-26T08:36:08.732Z,100
2022-12-26T08:37:08.732Z,100
2022-12-26T08:38:08.735Z,100
2022-12-26T08:39:08.754Z,100
2022-12-26T08:40:08.742Z,100
2022-12-26T08:41:08.753Z,100
2022-12-26T08:42:08.722Z,100
2022-12-26T08:44:26.827Z,100
2022-12-26T08:45:08.728Z,100
2022-12-26T08:46:08.786Z,100
2022-12-26T08:47:08.760Z,100
2022-12-26T08:48:08.727Z,100
2022-12-26T08:49:08.719Z,100
2022-12-26T08:50:08.735Z,100
2022-12-26T08:51:08.725Z,100
2022-12-26T08:52:08.719Z,100
2022-12-26T08:53:08.720Z,100
2022-12-26T08:54:08.725Z,100
2022-12-26T08:55:08.722Z,100
2022-12-26T08:56:08.730Z,100
2022-12-26T08:57:08.730Z,100
2022-12-26T08:58:08.769Z,100
2022-12-26T08:59:08.747Z,100
2022-12-26T09:00:08.733Z,100
2022-12-26T09:01:08.826Z,100
2022-12-26T09:02:08.897Z,100
2022-12-26T09:03:08.794Z,100
2022-12-26T09:04:08.723Z,100
2022-12-26T09:05:08.741Z,100
2022-12-26T09:06:08.734Z,100
2022-12-26T09:07:08.727Z,100
2022-12-26T09:08:08.760Z,100
2022-12-26T09:09:08.732Z,100
2022-12-26T09:10:08.760Z,100
2022-12-26T09:11:08.792Z,100
2022-12-26T09:12:08.730Z,100
2022-12-26T09:13:08.717Z,100
2022-12-26T09:14:08.730Z,100
2022-12-26T09:15:08.738Z,100
2022-12-26T09:16:08.774Z,100
2022-12-26T09:17:08.750Z,100
2022-12-26T09:18:08.731Z,100
2022-12-26T09:19:08.726Z,100
2022-12-26T09:20:08.738Z,100
2022-12-26T09:21:08.736Z,100
2022-12-26T09:22:08.733Z,100
2022-12-26T09:23:08.726Z,100
2022-12-26T09:24:08.729Z,100
2022-12-26T09:25:08.735Z,100
2022-12-26T09:26:08.729Z,100
2022-12-26T09:27:08.722Z,100
2022-12-26T09:28:08.719Z,100
2022-12-26T09:29:08.798Z,100
2022-12-26T09:30:08.736Z,100
2022-12-26T09:31:08.766Z,100
2022-12-26T09:32:08.729Z,100
2022-12-26T09:33:08.716Z,100
2022-12-26T09:34:08.728Z,100
2022-12-26T09:35:08.742Z,100
2022-12-26T09:36:14.281Z,100
2022-12-26T09:37:08.751Z,100
2022-12-26T09:38:08.746Z,100
2022-12-26T09:39:08.737Z,100
2022-12-26T09:40:08.728Z,100
2022-12-26T09:41:08.751Z,100
2022-12-26T09:42:08.743Z,100
2022-12-26T09:43:08.738Z,100
2022-12-26T09:44:08.733Z,99.4
2022-12-26T09:45:08.723Z,98.5
2022-12-26T09:46:08.757Z,99.2
2022-12-26T09:47:08.727Z,98.8
2022-12-26T09:48:08.744Z,98
2022-12-26T09:49:08.735Z,97.4
2022-12-26T09:50:08.809Z,98
2022-12-26T09:51:08.723Z,98.1
2022-12-26T09:52:08.731Z,97.8
2022-12-26T09:53:08.726Z,97.7
2022-12-26T09:54:08.735Z,97
2022-12-26T09:55:08.735Z,97
2022-12-26T09:56:13.950Z,96.8
2022-12-26T09:57:14.780Z,96
2022-12-26T09:58:08.735Z,96.3
2022-12-26T09:59:08.725Z,96.5
2022-12-26T10:00:08.728Z,95.6
2022-12-26T10:01:08.825Z,94
2022-12-26T10:02:08.821Z,94.4
2022-12-26T10:03:08.735Z,94.8
2022-12-26T10:04:08.875Z,94.6
2022-12-26T10:05:08.753Z,94.7
2022-12-26T10:06:08.738Z,94.6
2022-12-26T10:07:08.730Z,95.8
2022-12-26T10:08:08.727Z,95.3
2022-12-26T10:09:08.723Z,96.2
2022-12-26T10:10:08.731Z,96.2
2022-12-26T10:11:08.790Z,96
2022-12-26T10:12:08.752Z,95.7
2022-12-26T10:13:08.732Z,95.4
2022-12-26T10:14:08.726Z,95.4
2022-12-26T10:15:08.734Z,95.3
2022-12-26T10:16:08.792Z,94.6
2022-12-26T10:17:08.733Z,94
2022-12-26T10:18:08.749Z,93.6
2022-12-26T10:19:08.779Z,93.5
2022-12-26T10:20:08.733Z,93.8
2022-12-26T10:21:08.747Z,93.2
2022-12-26T10:22:08.740Z,93.4
2022-12-26T10:23:08.730Z,93.7
2022-12-26T10:24:08.734Z,93.9
2022-12-26T10:25:08.768Z,94
2022-12-26T10:26:08.725Z,93.6
2022-12-26T10:27:08.728Z,93.9
2022-12-26T10:28:08.733Z,94.1
2022-12-26T10:29:08.762Z,94.1
2022-12-26T10:30:08.788Z,93.9
2022-12-26T10:31:08.776Z,94.1
2022-12-26T10:32:08.804Z,93.8
2022-12-26T10:33:08.737Z,94.4
2022-12-26T10:34:08.734Z,93.9
2022-12-26T10:35:08.728Z,94
2022-12-26T10:36:08.743Z,93.4
2022-12-26T10:37:08.746Z,93.2
2022-12-26T10:38:08.724Z,94.1
2022-12-26T10:39:08.735Z,94.2
2022-12-26T10:40:08.731Z,93.5
2022-12-26T10:41:08.731Z,94.3
2022-12-26T10:42:08.735Z,93.7
2022-12-26T10:43:08.751Z,93.2
2022-12-26T10:44:08.735Z,93.1
2022-12-26T10:45:08.739Z,93.4
2022-12-26T10:46:08.793Z,93.8
2022-12-26T10:47:08.736Z,93.5
2022-12-26T10:48:08.745Z,93.6
2022-12-26T10:49:08.724Z,93.6
2022-12-26T10:50:08.735Z,93.4
2022-12-26T10:51:08.726Z,92.7
2022-12-26T10:52:08.723Z,92.9
2022-12-26T10:53:08.732Z,93
2022-12-26T10:54:08.724Z,93.2
2022-12-26T10:55:28.729Z,93.1
2022-12-26T10:56:11.951Z,93
2022-12-26T10:57:08.729Z,93.2
2022-12-26T10:58:08.800Z,94.2
2022-12-26T10:59:08.729Z,94.1
2022-12-26T11:00:08.734Z,94.8
2022-12-26T11:01:08.786Z,95
2022-12-26T11:02:08.790Z,94.6
2022-12-26T11:03:08.905Z,94.7
2022-12-26T11:04:08.749Z,94.7
2022-12-26T11:05:21.819Z,94.4
2022-12-26T11:06:09.563Z,94
2022-12-26T11:07:08.724Z,94.4
2022-12-26T11:08:08.752Z,94.6
2022-12-26T11:09:08.743Z,94.3
2022-12-26T11:10:08.751Z,93.9
2022-12-26T11:11:08.730Z,94.2
2022-12-26T11:12:08.745Z,94.1
2022-12-26T11:13:08.778Z,94
2022-12-26T11:14:08.812Z,93.4
2022-12-26T11:15:08.736Z,93.5
2022-12-26T11:16:08.797Z,93.4
2022-12-26T11:17:08.755Z,93.4
2022-12-26T11:18:08.738Z,92.3
2022-12-26T11:19:08.732Z,92.2
2022-12-26T11:20:08.733Z,91.9
2022-12-26T11:21:11.041Z,92.4
2022-12-26T11:22:08.733Z,91.5
2022-12-26T11:23:08.745Z,91.1
2022-12-26T11:24:08.808Z,91.5
2022-12-26T11:25:08.733Z,91.6
2022-12-26T11:26:08.809Z,91.1
2022-12-26T11:27:12.725Z,91.2
2022-12-26T11:28:08.763Z,91.2
2022-12-26T11:29:08.728Z,91.5
2022-12-26T11:30:08.736Z,91.6
2022-12-26T11:31:08.802Z,91.6
2022-12-26T11:32:08.733Z,91.3
2022-12-26T11:33:13.742Z,91.3
2022-12-26T11:34:08.736Z,91.5
2022-12-26T11:35:08.738Z,91.2
2022-12-26T11:36:08.741Z,91.2
2022-12-26T11:37:08.735Z,91
2022-12-26T11:38:08.734Z,91
2022-12-26T11:39:08.744Z,90.3
2022-12-26T11:41:08.741Z,90.1
2022-12-26T11:42:08.744Z,89.7
2022-12-26T11:43:08.737Z,88.6
2022-12-26T11:44:08.741Z,89.5
2022-12-26T11:45:08.761Z,89.5
2022-12-26T11:46:08.744Z,89.8
2022-12-26T11:47:08.731Z,90.2
2022-12-26T11:48:08.736Z,90.7
2022-12-26T11:49:08.738Z,90.7
2022-12-26T11:50:08.736Z,90
2022-12-26T11:51:08.734Z,89.9
2022-12-26T11:52:08.829Z,89.3
2022-12-26T11:53:08.737Z,89.5
2022-12-26T11:54:08.741Z,89.7
2022-12-26T11:55:08.739Z,89.6
2022-12-26T11:56:08.736Z,89.3
2022-12-26T11:57:08.734Z,88.4
2022-12-26T11:58:08.803Z,88.2
2022-12-26T11:59:08.762Z,88.2
2022-12-26T12:00:08.735Z,88.5
2022-12-26T12:01:08.762Z,87.6
2022-12-26T12:02:08.808Z,87.5
2022-12-26T12:03:08.775Z,87.7
2022-12-26T12:04:08.753Z,87.4
2022-12-26T12:05:08.735Z,87.1
2022-12-26T12:06:08.744Z,87
2022-12-26T12:07:08.739Z,87
2022-12-26T12:08:08.748Z,87.5
2022-12-26T12:09:08.751Z,88.1
2022-12-26T12:10:08.747Z,88.2
2022-12-26T12:11:08.730Z,88.7
2022-12-26T12:12:08.736Z,88.8
2022-12-26T12:13:08.738Z,88.9
2022-12-26T12:14:08.747Z,89.1
2022-12-26T12:15:08.739Z,89.2
2022-12-26T12:17:08.757Z,88.2
2022-12-26T12:18:08.734Z,88.7
2022-12-26T12:19:08.746Z,88.7
2022-12-26T12:20:08.747Z,89.6
2022-12-26T12:21:08.747Z,89
2022-12-26T12:22:08.743Z,88.3
2022-12-26T12:23:08.738Z,88.7
2022-12-26T12:24:08.741Z,88.1
2022-12-26T12:25:08.730Z,88.8
2022-12-26T12:26:08.739Z,88.1
2022-12-26T12:27:08.765Z,89.8
2022-12-26T12:28:08.737Z,90.4
2022-12-26T12:29:08.734Z,91.7
2022-12-26T12:30:08.745Z,90.9
2022-12-26T12:31:08.742Z,91.1
2022-12-26T12:32:08.753Z,92.3
2022-12-26T12:33:08.761Z,93
2022-12-26T12:34:08.771Z,93.3
2022-12-26T12:35:08.743Z,93.2
2022-12-26T12:36:08.735Z,94.8
2022-12-26T12:37:08.759Z,96.9
2022-12-26T12:38:08.755Z,97.7
2022-12-26T12:39:08.735Z,98.9
2022-12-26T12:40:08.742Z,98.9
2022-12-26T12:41:08.743Z,99.6
2022-12-26T12:42:08.745Z,100
2022-12-26T12:43:09.049Z,100
2022-12-26T12:44:08.760Z,100
2022-12-26T12:45:08.742Z,100
2022-12-26T12:46:08.790Z,100
2022-12-26T12:47:08.759Z,100
2022-12-26T12:48:08.745Z,100
2022-12-26T12:49:08.749Z,100
2022-12-26T12:50:08.753Z,100
2022-12-26T12:51:08.748Z,100
2022-12-26T12:52:08.749Z,100
2022-12-26T12:53:08.774Z,100
2022-12-26T12:54:08.740Z,100
2022-12-26T12:55:08.748Z,100
2022-12-26T12:56:08.737Z,100
2022-12-26T12:57:08.746Z,100
2022-12-26T12:58:08.734Z,100
2022-12-26T12:59:08.749Z,100
2022-12-26T13:00:08.760Z,100
2022-12-26T13:01:08.847Z,100
2022-12-26T13:02:11.911Z,100
2022-12-26T13:03:08.789Z,100
2022-12-26T13:04:08.747Z,100
2022-12-26T13:05:08.752Z,100
2022-12-26T13:06:08.753Z,100
2022-12-26T13:07:08.771Z,100
2022-12-26T13:08:08.741Z,100
2022-12-26T13:09:08.750Z,100
2022-12-26T13:10:08.748Z,100
2022-12-26T13:11:08.762Z,100
2022-12-26T13:12:08.753Z,100
2022-12-26T13:13:08.739Z,100
2022-12-26T13:14:08.763Z,100
2022-12-26T13:15:08.744Z,100
2022-12-26T13:16:08.767Z,100
2022-12-26T13:17:08.741Z,100
2022-12-26T13:18:08.769Z,100
2022-12-26T13:19:08.748Z,100
2022-12-26T13:20:08.767Z,100
2022-12-26T13:21:08.813Z,100
2022-12-26T13:22:08.741Z,100
2022-12-26T13:23:08.750Z,100
2022-12-26T13:24:08.751Z,100
2022-12-26T13:25:08.735Z,100
2022-12-26T13:26:08.748Z,100
2022-12-26T13:27:08.746Z,100
2022-12-26T13:28:08.765Z,100
2022-12-26T13:29:08.741Z,100
2022-12-26T13:30:08.757Z,100
2022-12-26T13:31:08.740Z,100
2022-12-26T13:32:08.759Z,100
2022-12-26T13:33:08.752Z,100
2022-12-26T13:34:08.762Z,100
2022-12-26T13:35:08.775Z,100
2022-12-26T13:36:08.741Z,100
2022-12-26T13:37:08.792Z,100
2022-12-26T13:38:08.760Z,100
2022-12-26T13:39:08.785Z,100
2022-12-26T13:40:08.775Z,100
2022-12-26T13:41:08.755Z,100
2022-12-26T13:42:08.781Z,100
2022-12-26T13:43:08.755Z,100
2022-12-26T13:44:08.761Z,100
2022-12-26T13:45:08.749Z,100
2022-12-26T13:46:08.782Z,98.4
2022-12-26T13:47:08.748Z,98.6
2022-12-26T13:48:08.803Z,97.2
2022-12-26T13:49:08.797Z,97.4
2022-12-26T13:50:08.781Z,97.4
2022-12-26T13:51:08.745Z,95.7
2022-12-26T13:52:08.751Z,94.9
2022-12-26T13:53:08.748Z,95.1
2022-12-26T13:54:08.752Z,95
2022-12-26T13:55:08.745Z,95.3
2022-12-26T13:56:08.752Z,94.6
2022-12-26T13:57:08.752Z,95
2022-12-26T13:58:08.753Z,95.4
2022-12-26T13:59:08.744Z,95.4
2022-12-26T14:00:08.838Z,95.6
2022-12-26T14:01:08.868Z,95
2022-12-26T14:02:11.127Z,95.1
2022-12-26T14:03:20.771Z,95.3
2022-12-26T14:04:08.819Z,95.2
2022-12-26T14:05:08.781Z,94.6
2022-12-26T14:06:08.752Z,94.6
2022-12-26T14:07:08.749Z,95.3
2022-12-26T14:08:08.748Z,94.5
2022-12-26T14:09:08.764Z,94.4
2022-12-26T14:10:08.766Z,94.5
2022-12-26T14:11:08.757Z,95.3
2022-12-26T14:12:08.757Z,94.6
2022-12-26T14:13:08.754Z,93.4
2022-12-26T14:14:08.753Z,93.7
2022-12-26T14:15:08.747Z,93.7
2022-12-26T14:16:08.751Z,92.6
2022-12-26T14:17:08.824Z,93.3
2022-12-26T14:18:08.751Z,93.6
2022-12-26T14:19:08.747Z,92.7
2022-12-26T14:20:08.779Z,93
2022-12-26T14:21:08.751Z,92.1
2022-12-26T14:22:08.739Z,91.2
2022-12-26T14:23:08.748Z,91.6
2022-12-26T14:24:08.752Z,91.2
2022-12-26T14:25:08.747Z,91
2022-12-26T14:26:08.763Z,91.2
2022-12-26T14:27:08.754Z,91
2022-12-26T14:28:08.751Z,90.9
2022-12-26T14:29:08.751Z,90.9
2022-12-26T14:30:08.746Z,90.8
2022-12-26T14:31:08.828Z,91.7
2022-12-26T14:32:08.744Z,91.8
2022-12-26T14:33:08.747Z,92.4
2022-12-26T14:34:10.669Z,92.1
2022-12-26T14:35:08.765Z,92.1